createdAt,value
2017-12-15T00:01:28.475Z,8.5
2017-12-15T00:11:27.712Z,6.6
2017-12-15T00:21:26.787Z,7.3
2017-12-15T00:31:27.633Z,7.4
2017-12-15T00:41:28.060Z,7.7
2017-12-15T00:51:26.824Z,6.7
2017-12-15T01:01:26.202Z,6.0
2017-12-15T01:11:28.106Z,6.7
2017-12-15T01:21:25.680Z,5.7
2017-12-15T01:31:26.624Z,6.4
2017-12-15T01:41:26.318Z,6.5
2017-12-15T01:51:26.396Z,6.3
2017-12-15T02:01:26.830Z,6.5
2017-12-15T02:11:27.045Z,8.5
2017-12-15T02:21:26.426Z,10.2
2017-12-15T02:31:27.762Z,10.2
2017-12-15T02:41:28.660Z,7.3
2017-12-15T02:51:26.840Z,6.3
2017-12-15T03:01:26.016Z,6.2
2017-12-15T03:11:26.895Z,5.3
2017-12-15T03:21:26.458Z,5.9
2017-12-15T03:31:25.950Z,5.7
2017-12-15T03:41:26.444Z,5.8
2017-12-15T03:51:25.761Z,5.9
2017-12-15T04:01:26.802Z,6.7
2017-12-15T04:11:27.046Z,6.2
2017-12-15T04:21:27.163Z,6.5
2017-12-15T04:31:26.245Z,5.8
2017-12-15T04:41:27.788Z,5.8
2017-12-15T04:51:28.800Z,12.6
2017-12-15T05:01:26.324Z,11.1
2017-12-15T05:11:26.108Z,11.8
2017-12-15T05:21:27.264Z,11.1
2017-12-15T05:31:26.290Z,11.7
2017-12-15T05:41:27.282Z,9.7
2017-12-15T05:51:25.765Z,11.3
2017-12-15T06:01:26.654Z,8.4
2017-12-15T06:11:28.167Z,6.6
2017-12-15T06:21:25.575Z,7.4
2017-12-15T06:31:27.179Z,6.5
2017-12-15T06:41:27.083Z,10.4
2017-12-15T06:51:26.300Z,11.7
2017-12-15T07:01:25.771Z,8.5
2017-12-15T07:11:31.551Z,7.5
2017-12-15T07:21:31.410Z,9.4
2017-12-15T07:31:26.519Z,10.7
2017-12-15T07:41:31.999Z,15.3
2017-12-15T07:51:26.834Z,20.5
2017-12-15T08:01:27.080Z,18.8
2017-12-15T08:11:26.296Z,18.8
2017-12-15T08:21:26.221Z,17.8
2017-12-15T08:31:28.334Z,19.5
2017-12-15T08:41:26.347Z,20.9
2017-12-15T08:51:26.866Z,22.4
2017-12-15T09:01:28.872Z,18.9
2017-12-15T09:11:27.650Z,16.7
2017-12-15T09:21:27.696Z,13.6
2017-12-15T09:31:27.896Z,18.1
2017-12-15T09:41:27.822Z,20.3
2017-12-15T09:51:27.731Z,20.0
2017-12-15T10:01:25.838Z,19.8
2017-12-15T10:11:27.886Z,20.3
2017-12-15T10:21:28.252Z,21.3
2017-12-15T10:31:26.660Z,21.5
2017-12-15T10:41:25.766Z,19.7
2017-12-15T10:51:26.148Z,15.3
2017-12-15T11:01:26.598Z,14.5
2017-12-15T11:11:26.828Z,15.3
2017-12-15T11:21:26.372Z,15.5
2017-12-15T11:31:25.640Z,15.5
2017-12-15T11:41:26.223Z,14.5
2017-12-15T11:51:26.383Z,20.1
2017-12-15T12:01:26.160Z,18.2
2017-12-15T12:11:26.966Z,18.5
2017-12-15T12:21:26.584Z,17.5
2017-12-15T12:31:26.841Z,13.4
2017-12-15T12:41:28.003Z,13.1
2017-12-15T12:51:26.162Z,11.3
2017-12-15T13:01:27.079Z,5.0
2017-12-15T13:11:27.729Z,7.8
2017-12-15T13:21:28.111Z,9.7
2017-12-15T13:31:27.315Z,12.1
2017-12-15T13:41:25.778Z,7.8
2017-12-15T13:51:26.557Z,7.1
2017-12-15T14:01:25.684Z,6.0
2017-12-15T14:11:26.466Z,4.6
2017-12-15T14:21:26.511Z,5.2
2017-12-15T14:31:25.716Z,4.2
2017-12-15T14:41:26.981Z,3.5
2017-12-15T14:51:28.394Z,3.6
2017-12-15T15:01:26.934Z,4.2
2017-12-15T15:11:26.933Z,3.5
2017-12-15T15:21:26.279Z,3.9
2017-12-15T15:31:26.902Z,4.1
2017-12-15T15:41:26.846Z,4.1
2017-12-15T15:51:26.831Z,4.1
2017-12-15T16:01:27.938Z,3.9
2017-12-15T16:11:26.802Z,4.7
2017-12-15T16:21:26.998Z,4.6
2017-12-15T16:31:27.783Z,5.8
2017-12-15T16:41:27.047Z,5.3
2017-12-15T16:51:26.645Z,6.6
2017-12-15T17:01:27.689Z,6.9
2017-12-15T17:11:27.824Z,7.5
2017-12-15T17:21:26.517Z,6.7
2017-12-15T17:31:25.790Z,7.8
2017-12-15T17:41:26.430Z,8.9
2017-12-15T17:51:27.745Z,17.4
2017-12-15T18:01:26.952Z,11.6
2017-12-15T18:11:27.469Z,13.2
2017-12-15T18:21:26.145Z,17.9
2017-12-15T18:31:26.645Z,13.4
2017-12-15T18:41:26.638Z,11.8
2017-12-15T18:51:25.858Z,11.4
2017-12-15T19:01:26.290Z,12.9
2017-12-15T19:11:27.608Z,13.7
2017-12-15T19:21:25.934Z,16.0
2017-12-15T19:31:27.509Z,16.2
2017-12-15T19:41:28.003Z,14.1
2017-12-15T19:51:26.881Z,15.2
2017-12-15T20:01:27.793Z,17.9
2017-12-15T20:11:26.685Z,19.9
2017-12-15T20:21:27.322Z,18.7
2017-12-15T20:31:27.294Z,18.5
2017-12-15T20:41:26.075Z,20.5
2017-12-15T20:51:27.795Z,21.2
2017-12-15T21:01:27.244Z,21.4
2017-12-15T21:11:27.375Z,20.5
2017-12-15T21:21:25.794Z,23.2
2017-12-15T21:31:26.745Z,25.4
2017-12-15T21:41:26.582Z,24.2
2017-12-15T21:51:26.062Z,24.0
2017-12-15T22:01:28.171Z,23.3
2017-12-15T22:11:27.159Z,22.1
2017-12-15T22:21:25.882Z,26.5
2017-12-15T22:31:27.195Z,25.2
2017-12-15T22:41:26.279Z,25.6
2017-12-15T22:51:26.453Z,24.1
2017-12-15T23:01:27.257Z,25.0
2017-12-15T23:11:26.251Z,24.6
2017-12-15T23:21:25.588Z,25.0
2017-12-15T23:31:26.029Z,23.9
2017-12-15T23:41:27.622Z,24.6
2017-12-15T23:51:27.380Z,26.5
